sensor_id;sensor_type;location;lat;lon;timestamp;temperature;humidity
4215;DHT22;2121;48.062;7.850;2022-12-07T00:03:42;3.70;99.90
4215;DHT22;2121;48.062;7.850;2022-12-07T00:06:10;3.70;99.90
4215;DHT22;2121;48.062;7.850;2022-12-07T00:08:37;3.70;99.90
4215;DHT22;2121;48.062;7.850;2022-12-07T00:11:09;3.70;99.90
4215;DHT22;2121;48.062;7.850;2022-12-07T00:13:37;3.70;99.90
4215;DHT22;2121;48.062;7.850;2022-12-07T00:16:05;3.70;99.90
4215;DHT22;2121;48.062;7.850;2022-12-07T00:18:32;3.70;99.90
4215;DHT22;2121;48.062;7.850;2022-12-07T00:23:44;3.70;99.90
4215;DHT22;2121;48.062;7.850;2022-12-07T00:26:19;3.80;99.90
4215;DHT22;2121;48.062;7.850;2022-12-07T00:28:51;3.80;99.90
4215;DHT22;2121;48.062;7.850;2022-12-07T00:31:19;3.80;99.90
4215;DHT22;2121;48.062;7.850;2022-12-07T00:33:47;3.70;99.90
4215;DHT22;2121;48.062;7.850;2022-12-07T00:36:15;3.70;99.90
4215;DHT22;2121;48.062;7.850;2022-12-07T00:38:43;3.70;99.90
4215;DHT22;2121;48.062;7.850;2022-12-07T00:41:12;3.80;99.90
4215;DHT22;2121;48.062;7.850;2022-12-07T00:43:41;3.70;99.90
4215;DHT22;2121;48.062;7.850;2022-12-07T00:46:08;3.70;99.90
4215;DHT22;2121;48.062;7.850;2022-12-07T00:48:34;3.80;99.90
4215;DHT22;2121;48.062;7.850;2022-12-07T00:51:00;3.80;99.90
4215;DHT22;2121;48.062;7.850;2022-12-07T00:53:26;3.80;99.90
4215;DHT22;2121;48.062;7.850;2022-12-07T00:55:52;3.80;99.90
4215;DHT22;2121;48.062;7.850;2022-12-07T00:58:19;3.70;99.90
4215;DHT22;2121;48.062;7.850;2022-12-07T01:00:45;3.70;99.90
4215;DHT22;2121;48.062;7.850;2022-12-07T01:03:12;3.70;99.90
4215;DHT22;2121;48.062;7.850;2022-12-07T01:05:39;3.60;99.90
4215;DHT22;2121;48.062;7.850;2022-12-07T01:08:06;3.60;99.90
4215;DHT22;2121;48.062;7.850;2022-12-07T01:10:32;3.60;99.90
4215;DHT22;2121;48.062;7.850;2022-12-07T01:12:58;3.60;99.90
4215;DHT22;2121;48.062;7.850;2022-12-07T01:15:25;3.80;99.90
4215;DHT22;2121;48.062;7.850;2022-12-07T01:17:51;3.90;99.90
4215;DHT22;2121;48.062;7.850;2022-12-07T01:20:17;3.90;99.90
4215;DHT22;2121;48.062;7.850;2022-12-07T01:22:43;4.00;99.90
4215;DHT22;2121;48.062;7.850;2022-12-07T01:25:11;4.10;99.90
4215;DHT22;2121;48.062;7.850;2022-12-07T01:27:37;4.00;99.90
4215;DHT22;2121;48.062;7.850;2022-12-07T01:30:04;3.90;99.90
4215;DHT22;2121;48.062;7.850;2022-12-07T01:32:31;3.90;99.90
4215;DHT22;2121;48.062;7.850;2022-12-07T01:34:57;3.80;99.90
4215;DHT22;2121;48.062;7.850;2022-12-07T01:37:23;3.70;99.90
4215;DHT22;2121;48.062;7.850;2022-12-07T01:39:52;3.70;99.90
4215;DHT22;2121;48.062;7.850;2022-12-07T01:42:18;3.80;99.90
4215;DHT22;2121;48.062;7.850;2022-12-07T01:47:50;3.60;99.90
4215;DHT22;2121;48.062;7.850;2022-12-07T01:50:20;3.50;99.90
4215;DHT22;2121;48.062;7.850;2022-12-07T01:52:48;3.50;99.90
4215;DHT22;2121;48.062;7.850;2022-12-07T01:55:15;3.30;99.90
4215;DHT22;2121;48.062;7.850;2022-12-07T01:57:45;3.30;99.90
4215;DHT22;2121;48.062;7.850;2022-12-07T02:00:16;3.30;99.90
4215;DHT22;2121;48.062;7.850;2022-12-07T02:02:55;3.20;99.90
4215;DHT22;2121;48.062;7.850;2022-12-07T02:05:25;3.20;99.90
4215;DHT22;2121;48.062;7.850;2022-12-07T02:07:54;3.30;99.90
4215;DHT22;2121;48.062;7.850;2022-12-07T02:10:27;3.20;99.90
4215;DHT22;2121;48.062;7.850;2022-12-07T02:13:10;3.10;99.90
4215;DHT22;2121;48.062;7.850;2022-12-07T02:28:04;3.00;99.90
4215;DHT22;2121;48.062;7.850;2022-12-07T02:30:34;3.00;99.90
4215;DHT22;2121;48.062;7.850;2022-12-07T02:33:08;3.00;99.90
4215;DHT22;2121;48.062;7.850;2022-12-07T02:35:46;3.00;99.90
4215;DHT22;2121;48.062;7.850;2022-12-07T02:38:26;3.00;99.90
4215;DHT22;2121;48.062;7.850;2022-12-07T02:41:18;3.00;99.90
4215;DHT22;2121;48.062;7.850;2022-12-07T02:44:00;3.00;99.90
4215;DHT22;2121;48.062;7.850;2022-12-07T02:46:31;3.00;99.90
4215;DHT22;2121;48.062;7.850;2022-12-07T02:49:00;2.90;99.90
4215;DHT22;2121;48.062;7.850;2022-12-07T02:51:32;2.90;99.90
4215;DHT22;2121;48.062;7.850;2022-12-07T02:53:59;2.90;99.90
4215;DHT22;2121;48.062;7.850;2022-12-07T02:56:40;2.90;99.90
4215;DHT22;2121;48.062;7.850;2022-12-07T02:59:34;2.90;99.90
4215;DHT22;2121;48.062;7.850;2022-12-07T03:16:30;3.20;99.90
4215;DHT22;2121;48.062;7.850;2022-12-07T03:19:10;3.30;99.90
4215;DHT22;2121;48.062;7.850;2022-12-07T03:21:51;3.40;99.90
4215;DHT22;2121;48.062;7.850;2022-12-07T03:24:31;3.30;99.90
4215;DHT22;2121;48.062;7.850;2022-12-07T03:27:33;3.40;99.90
4215;DHT22;2121;48.062;7.850;2022-12-07T03:30:16;3.30;99.90
4215;DHT22;2121;48.062;7.850;2022-12-07T03:35:34;3.30;99.90
4215;DHT22;2121;48.062;7.850;2022-12-07T03:38:26;3.40;99.90
4215;DHT22;2121;48.062;7.850;2022-12-07T03:41:19;3.30;99.90
4215;DHT22;2121;48.062;7.850;2022-12-07T03:43:53;3.30;99.90
4215;DHT22;2121;48.062;7.850;2022-12-07T03:49:23;3.30;99.90
4215;DHT22;2121;48.062;7.850;2022-12-07T03:57:24;3.20;99.90
4215;DHT22;2121;48.062;7.850;2022-12-07T03:59:54;3.20;99.90
4215;DHT22;2121;48.062;7.850;2022-12-07T04:02:22;3.20;99.90
4215;DHT22;2121;48.062;7.850;2022-12-07T04:04:49;3.10;99.90
4215;DHT22;2121;48.062;7.850;2022-12-07T04:07:15;3.00;99.90
4215;DHT22;2121;48.062;7.850;2022-12-07T04:09:41;3.10;99.90
4215;DHT22;2121;48.062;7.850;2022-12-07T04:12:07;3.00;99.90
4215;DHT22;2121;48.062;7.850;2022-12-07T04:14:32;3.20;99.90
4215;DHT22;2121;48.062;7.850;2022-12-07T04:16:58;3.10;99.90
4215;DHT22;2121;48.062;7.850;2022-12-07T04:19:26;3.00;99.90
4215;DHT22;2121;48.062;7.850;2022-12-07T04:21:57;3.00;99.90
4215;DHT22;2121;48.062;7.850;2022-12-07T04:24:24;3.00;99.90
4215;DHT22;2121;48.062;7.850;2022-12-07T04:26:50;3.00;99.90
4215;DHT22;2121;48.062;7.850;2022-12-07T04:29:17;3.00;99.90
4215;DHT22;2121;48.062;7.850;2022-12-07T04:31:44;3.00;99.90
4215;DHT22;2121;48.062;7.850;2022-12-07T04:34:10;3.00;99.90
4215;DHT22;2121;48.062;7.850;2022-12-07T04:36:37;3.10;99.90
4215;DHT22;2121;48.062;7.850;2022-12-07T04:39:05;3.00;99.90
4215;DHT22;2121;48.062;7.850;2022-12-07T04:41:31;3.00;99.90
4215;DHT22;2121;48.062;7.850;2022-12-07T04:44:02;3.00;99.90
4215;DHT22;2121;48.062;7.850;2022-12-07T04:46:30;3.00;99.90
4215;DHT22;2121;48.062;7.850;2022-12-07T04:48:57;3.00;99.90
4215;DHT22;2121;48.062;7.850;2022-12-07T04:51:26;3.00;99.90
4215;DHT22;2121;48.062;7.850;2022-12-07T04:53:53;2.90;99.90
4215;DHT22;2121;48.062;7.850;2022-12-07T04:56:21;2.80;99.90
4215;DHT22;2121;48.062;7.850;2022-12-07T04:58:49;2.80;99.90
4215;DHT22;2121;48.062;7.850;2022-12-07T05:01:16;2.80;99.90
4215;DHT22;2121;48.062;7.850;2022-12-07T05:03:42;2.70;99.90
4215;DHT22;2121;48.062;7.850;2022-12-07T05:06:08;2.60;99.90
4215;DHT22;2121;48.062;7.850;2022-12-07T05:08:35;2.60;99.90
4215;DHT22;2121;48.062;7.850;2022-12-07T05:11:02;2.70;99.90
4215;DHT22;2121;48.062;7.850;2022-12-07T05:13:29;2.60;99.90
4215;DHT22;2121;48.062;7.850;2022-12-07T05:15:54;2.50;99.90
4215;DHT22;2121;48.062;7.850;2022-12-07T05:18:20;2.50;99.90
4215;DHT22;2121;48.062;7.850;2022-12-07T05:20:46;2.60;99.90
4215;DHT22;2121;48.062;7.850;2022-12-07T05:23:12;2.50;99.90
4215;DHT22;2121;48.062;7.850;2022-12-07T05:25:38;2.40;99.90
4215;DHT22;2121;48.062;7.850;2022-12-07T05:28:04;2.40;99.90
4215;DHT22;2121;48.062;7.850;2022-12-07T05:30:31;2.30;99.90
4215;DHT22;2121;48.062;7.850;2022-12-07T05:32:58;2.30;99.90
4215;DHT22;2121;48.062;7.850;2022-12-07T05:35:24;2.30;99.90
4215;DHT22;2121;48.062;7.850;2022-12-07T05:37:50;2.30;99.90
4215;DHT22;2121;48.062;7.850;2022-12-07T05:40:16;2.30;99.90
4215;DHT22;2121;48.062;7.850;2022-12-07T05:42:42;2.30;99.90
4215;DHT22;2121;48.062;7.850;2022-12-07T05:45:09;2.30;99.90
4215;DHT22;2121;48.062;7.850;2022-12-07T05:47:36;2.40;99.90
4215;DHT22;2121;48.062;7.850;2022-12-07T05:50:04;2.30;99.90
4215;DHT22;2121;48.062;7.850;2022-12-07T05:52:30;2.30;99.90
4215;DHT22;2121;48.062;7.850;2022-12-07T05:54:56;2.30;99.90
4215;DHT22;2121;48.062;7.850;2022-12-07T05:57:22;2.20;99.90
4215;DHT22;2121;48.062;7.850;2022-12-07T05:59:48;2.20;99.90
4215;DHT22;2121;48.062;7.850;2022-12-07T06:02:14;2.20;99.90
4215;DHT22;2121;48.062;7.850;2022-12-07T06:04:45;2.10;99.90
4215;DHT22;2121;48.062;7.850;2022-12-07T06:07:13;2.10;99.90
4215;DHT22;2121;48.062;7.850;2022-12-07T06:09:41;2.10;99.90
4215;DHT22;2121;48.062;7.850;2022-12-07T06:12:11;2.00;99.90
4215;DHT22;2121;48.062;7.850;2022-12-07T06:14:55;1.90;99.90
4215;DHT22;2121;48.062;7.850;2022-12-07T06:17:21;1.90;99.90
4215;DHT22;2121;48.062;7.850;2022-12-07T06:19:47;2.10;99.90
4215;DHT22;2121;48.062;7.850;2022-12-07T06:22:13;2.20;99.90
4215;DHT22;2121;48.062;7.850;2022-12-07T06:24:40;2.20;99.90
4215;DHT22;2121;48.062;7.850;2022-12-07T06:27:06;2.00;99.90
4215;DHT22;2121;48.062;7.850;2022-12-07T06:29:32;1.70;99.90
4215;DHT22;2121;48.062;7.850;2022-12-07T06:31:58;1.70;99.90
4215;DHT22;2121;48.062;7.850;2022-12-07T06:34:24;1.70;99.90
4215;DHT22;2121;48.062;7.850;2022-12-07T06:36:51;1.60;99.90
4215;DHT22;2121;48.062;7.850;2022-12-07T06:39:19;1.60;99.90
4215;DHT22;2121;48.062;7.850;2022-12-07T06:41:46;1.50;99.90
4215;DHT22;2121;48.062;7.850;2022-12-07T06:44:12;1.40;99.90
4215;DHT22;2121;48.062;7.850;2022-12-07T06:46:38;1.30;99.90
4215;DHT22;2121;48.062;7.850;2022-12-07T06:49:04;1.30;99.90
4215;DHT22;2121;48.062;7.850;2022-12-07T06:51:32;1.30;99.90
4215;DHT22;2121;48.062;7.850;2022-12-07T06:53:58;1.30;99.90
4215;DHT22;2121;48.062;7.850;2022-12-07T06:56:23;1.10;99.90
4215;DHT22;2121;48.062;7.850;2022-12-07T06:58:49;1.00;99.90
4215;DHT22;2121;48.062;7.850;2022-12-07T07:01:17;0.90;99.90
4215;DHT22;2121;48.062;7.850;2022-12-07T07:03:45;0.70;99.90
4215;DHT22;2121;48.062;7.850;2022-12-07T07:06:12;0.60;99.90
4215;DHT22;2121;48.062;7.850;2022-12-07T07:08:38;0.50;99.90
4215;DHT22;2121;48.062;7.850;2022-12-07T07:11:06;0.50;99.90
4215;DHT22;2121;48.062;7.850;2022-12-07T07:13:32;0.40;99.90
4215;DHT22;2121;48.062;7.850;2022-12-07T07:15:58;0.40;99.90
4215;DHT22;2121;48.062;7.850;2022-12-07T07:18:25;0.30;99.90
4215;DHT22;2121;48.062;7.850;2022-12-07T07:20:52;0.30;99.90
4215;DHT22;2121;48.062;7.850;2022-12-07T07:23:18;0.30;99.90
4215;DHT22;2121;48.062;7.850;2022-12-07T07:25:45;0.20;99.90
4215;DHT22;2121;48.062;7.850;2022-12-07T07:28:11;0.20;99.90
4215;DHT22;2121;48.062;7.850;2022-12-07T07:30:37;0.20;99.90
4215;DHT22;2121;48.062;7.850;2022-12-07T07:33:04;0.10;99.90
4215;DHT22;2121;48.062;7.850;2022-12-07T07:35:31;0.10;99.90
4215;DHT22;2121;48.062;7.850;2022-12-07T07:37:58;0.10;99.90
4215;DHT22;2121;48.062;7.850;2022-12-07T07:40:25;0.10;99.90
4215;DHT22;2121;48.062;7.850;2022-12-07T07:42:52;0.20;99.90
4215;DHT22;2121;48.062;7.850;2022-12-07T07:45:20;0.30;99.90
4215;DHT22;2121;48.062;7.850;2022-12-07T07:47:47;0.30;99.90
4215;DHT22;2121;48.062;7.850;2022-12-07T07:50:13;0.40;99.90
4215;DHT22;2121;48.062;7.850;2022-12-07T07:52:39;0.40;99.90
4215;DHT22;2121;48.062;7.850;2022-12-07T07:55:06;0.50;99.90
4215;DHT22;2121;48.062;7.850;2022-12-07T07:57:37;0.50;99.90
4215;DHT22;2121;48.062;7.850;2022-12-07T08:00:10;0.70;99.90
4215;DHT22;2121;48.062;7.850;2022-12-07T08:02:37;0.80;99.90
4215;DHT22;2121;48.062;7.850;2022-12-07T08:05:02;0.90;99.90
4215;DHT22;2121;48.062;7.850;2022-12-07T08:07:28;0.90;99.90
4215;DHT22;2121;48.062;7.850;2022-12-07T08:09:54;1.00;99.90
4215;DHT22;2121;48.062;7.850;2022-12-07T08:12:20;1.10;99.90
4215;DHT22;2121;48.062;7.850;2022-12-07T08:14:45;1.10;99.90
4215;DHT22;2121;48.062;7.850;2022-12-07T08:17:12;1.30;99.90
4215;DHT22;2121;48.062;7.850;2022-12-07T08:19:38;1.50;99.90
4215;DHT22;2121;48.062;7.850;2022-12-07T08:22:04;1.60;99.90
4215;DHT22;2121;48.062;7.850;2022-12-07T08:24:33;1.70;99.90
4215;DHT22;2121;48.062;7.850;2022-12-07T08:26:59;1.80;99.90
4215;DHT22;2121;48.062;7.850;2022-12-07T08:29:25;2.00;99.90
4215;DHT22;2121;48.062;7.850;2022-12-07T08:31:51;2.10;99.90
4215;DHT22;2121;48.062;7.850;2022-12-07T08:34:17;2.10;99.90
4215;DHT22;2121;48.062;7.850;2022-12-07T08:36:43;2.10;99.90
4215;DHT22;2121;48.062;7.850;2022-12-07T08:39:08;1.90;99.90
4215;DHT22;2121;48.062;7.850;2022-12-07T08:41:34;1.70;99.90
4215;DHT22;2121;48.062;7.850;2022-12-07T08:44:00;1.70;99.90
4215;DHT22;2121;48.062;7.850;2022-12-07T08:46:36;1.60;99.90
4215;DHT22;2121;48.062;7.850;2022-12-07T08:49:16;1.60;99.90
4215;DHT22;2121;48.062;7.850;2022-12-07T08:51:44;1.60;99.90
4215;DHT22;2121;48.062;7.850;2022-12-07T08:54:16;1.70;99.90
4215;DHT22;2121;48.062;7.850;2022-12-07T08:56:43;1.90;99.90
4215;DHT22;2121;48.062;7.850;2022-12-07T08:59:09;2.10;99.90
4215;DHT22;2121;48.062;7.850;2022-12-07T09:01:36;2.20;99.90
4215;DHT22;2121;48.062;7.850;2022-12-07T09:04:01;2.20;99.90
4215;DHT22;2121;48.062;7.850;2022-12-07T09:06:28;2.40;99.90
4215;DHT22;2121;48.062;7.850;2022-12-07T09:08:58;2.70;99.90
4215;DHT22;2121;48.062;7.850;2022-12-07T09:11:24;3.00;99.90
4215;DHT22;2121;48.062;7.850;2022-12-07T09:13:50;3.40;99.90
4215;DHT22;2121;48.062;7.850;2022-12-07T09:16:15;3.70;99.90
4215;DHT22;2121;48.062;7.850;2022-12-07T09:18:41;3.90;99.90
4215;DHT22;2121;48.062;7.850;2022-12-07T09:21:07;4.10;99.90
4215;DHT22;2121;48.062;7.850;2022-12-07T09:23:33;4.10;99.90
4215;DHT22;2121;48.062;7.850;2022-12-07T09:26:04;4.20;99.90
4215;DHT22;2121;48.062;7.850;2022-12-07T09:28:33;4.20;99.90
4215;DHT22;2121;48.062;7.850;2022-12-07T09:31:00;4.20;99.90
4215;DHT22;2121;48.062;7.850;2022-12-07T09:33:25;4.30;99.90
4215;DHT22;2121;48.062;7.850;2022-12-07T09:35:51;4.50;99.90
4215;DHT22;2121;48.062;7.850;2022-12-07T09:38:19;4.70;99.90
4215;DHT22;2121;48.062;7.850;2022-12-07T09:40:45;4.70;99.90
4215;DHT22;2121;48.062;7.850;2022-12-07T09:43:19;4.70;99.90
4215;DHT22;2121;48.062;7.850;2022-12-07T09:45:48;4.70;99.90
4215;DHT22;2121;48.062;7.850;2022-12-07T09:48:18;4.70;99.90
4215;DHT22;2121;48.062;7.850;2022-12-07T09:50:47;4.70;99.90
4215;DHT22;2121;48.062;7.850;2022-12-07T09:53:30;4.70;99.90
4215;DHT22;2121;48.062;7.850;2022-12-07T09:55:59;4.60;99.90
4215;DHT22;2121;48.062;7.850;2022-12-07T09:58:27;4.70;99.90
4215;DHT22;2121;48.062;7.850;2022-12-07T10:00:56;5.10;99.90
4215;DHT22;2121;48.062;7.850;2022-12-07T10:03:28;5.50;99.90
4215;DHT22;2121;48.062;7.850;2022-12-07T10:05:55;6.00;99.90
4215;DHT22;2121;48.062;7.850;2022-12-07T10:08:22;6.20;99.90
4215;DHT22;2121;48.062;7.850;2022-12-07T10:10:54;6.30;99.90
4215;DHT22;2121;48.062;7.850;2022-12-07T10:13:47;6.10;99.90
4215;DHT22;2121;48.062;7.850;2022-12-07T10:18:49;6.50;99.90
4215;DHT22;2121;48.062;7.850;2022-12-07T10:21:23;6.70;99.90
4215;DHT22;2121;48.062;7.850;2022-12-07T10:24:03;7.00;99.90
4215;DHT22;2121;48.062;7.850;2022-12-07T10:31:44;7.10;99.90
4215;DHT22;2121;48.062;7.850;2022-12-07T10:36:53;7.40;99.90
4215;DHT22;2121;48.062;7.850;2022-12-07T10:39:21;7.50;99.90
4215;DHT22;2121;48.062;7.850;2022-12-07T10:44:26;7.30;99.90
4215;DHT22;2121;48.062;7.850;2022-12-07T10:55:25;7.00;99.90
4215;DHT22;2121;48.062;7.850;2022-12-07T11:15:29;9.00;99.20
4215;DHT22;2121;48.062;7.850;2022-12-07T11:18:22;9.00;98.20
4215;DHT22;2121;48.062;7.850;2022-12-07T11:24:06;9.50;98.10
4215;DHT22;2121;48.062;7.850;2022-12-07T11:35:11;8.00;98.20
4215;DHT22;2121;48.062;7.850;2022-12-07T11:37:59;8.20;99.50
4215;DHT22;2121;48.062;7.850;2022-12-07T11:40:48;8.50;98.90
4215;DHT22;2121;48.062;7.850;2022-12-07T11:43:26;8.40;98.40
4215;DHT22;2121;48.062;7.850;2022-12-07T11:46:14;7.80;98.60
4215;DHT22;2121;48.062;7.850;2022-12-07T11:48:58;8.10;98.60
4215;DHT22;2121;48.062;7.850;2022-12-07T11:51:33;8.20;97.90
4215;DHT22;2121;48.062;7.850;2022-12-07T11:54:23;7.70;98.90
4215;DHT22;2121;48.062;7.850;2022-12-07T11:56:54;7.70;99.10
4215;DHT22;2121;48.062;7.850;2022-12-07T11:59:33;7.40;99.60
4215;DHT22;2121;48.062;7.850;2022-12-07T12:02:23;7.10;99.90
4215;DHT22;2121;48.062;7.850;2022-12-07T12:04:54;6.80;99.90
4215;DHT22;2121;48.062;7.850;2022-12-07T12:07:26;6.80;99.90
4215;DHT22;2121;48.062;7.850;2022-12-07T12:10:04;6.80;99.90
4215;DHT22;2121;48.062;7.850;2022-12-07T12:12:57;6.90;99.90
4215;DHT22;2121;48.062;7.850;2022-12-07T12:21:15;6.80;99.90
4215;DHT22;2121;48.062;7.850;2022-12-07T12:23:43;6.40;99.90
4215;DHT22;2121;48.062;7.850;2022-12-07T12:26:19;6.30;99.90
4215;DHT22;2121;48.062;7.850;2022-12-07T12:28:50;6.40;99.90
4215;DHT22;2121;48.062;7.850;2022-12-07T12:33:50;6.60;99.90
4215;DHT22;2121;48.062;7.850;2022-12-07T12:46:56;7.00;99.90
4215;DHT22;2121;48.062;7.850;2022-12-07T12:49:41;7.30;99.90
4215;DHT22;2121;48.062;7.850;2022-12-07T12:57:35;7.30;99.40
4215;DHT22;2121;48.062;7.850;2022-12-07T13:00:21;7.50;99.60
4215;DHT22;2121;48.062;7.850;2022-12-07T13:02:55;7.40;99.90
4215;DHT22;2121;48.062;7.850;2022-12-07T13:05:25;7.80;99.70
4215;DHT22;2121;48.062;7.850;2022-12-07T13:10:44;7.20;99.80
4215;DHT22;2121;48.062;7.850;2022-12-07T13:15:46;6.70;99.90
4215;DHT22;2121;48.062;7.850;2022-12-07T13:26:39;6.50;99.90
4215;DHT22;2121;48.062;7.850;2022-12-07T13:29:14;6.40;98.80
4215;DHT22;2121;48.062;7.850;2022-12-07T13:31:53;6.30;98.80
4215;DHT22;2121;48.062;7.850;2022-12-07T13:39:51;6.20;98.80
4215;DHT22;2121;48.062;7.850;2022-12-07T13:42:29;6.20;98.40
4215;DHT22;2121;48.062;7.850;2022-12-07T13:44:58;6.20;97.90
4215;DHT22;2121;48.062;7.850;2022-12-07T13:47:41;6.10;97.70
4215;DHT22;2121;48.062;7.850;2022-12-07T13:50:30;5.90;97.10
4215;DHT22;2121;48.062;7.850;2022-12-07T13:53:01;5.90;97.00
4215;DHT22;2121;48.062;7.850;2022-12-07T13:55:28;5.90;97.50
4215;DHT22;2121;48.062;7.850;2022-12-07T13:57:55;5.90;97.80
4215;DHT22;2121;48.062;7.850;2022-12-07T14:00:23;5.90;98.20
4215;DHT22;2121;48.062;7.850;2022-12-07T14:03:02;5.90;97.70
4215;DHT22;2121;48.062;7.850;2022-12-07T14:06:04;5.90;98.00
4215;DHT22;2121;48.062;7.850;2022-12-07T14:08:33;5.80;98.50
4215;DHT22;2121;48.062;7.850;2022-12-07T14:10:59;5.90;99.20
4215;DHT22;2121;48.062;7.850;2022-12-07T14:13:35;5.80;99.90
4215;DHT22;2121;48.062;7.850;2022-12-07T14:16:04;5.80;99.90
4215;DHT22;2121;48.062;7.850;2022-12-07T14:18:41;5.90;99.90
4215;DHT22;2121;48.062;7.850;2022-12-07T14:23:37;5.70;99.90
4215;DHT22;2121;48.062;7.850;2022-12-07T14:26:13;5.60;99.90
4215;DHT22;2121;48.062;7.850;2022-12-07T14:28:41;5.50;99.90
4215;DHT22;2121;48.062;7.850;2022-12-07T14:31:16;5.50;99.90
4215;DHT22;2121;48.062;7.850;2022-12-07T14:33:45;5.40;99.90
4215;DHT22;2121;48.062;7.850;2022-12-07T14:36:15;5.40;99.90
4215;DHT22;2121;48.062;7.850;2022-12-07T14:38:41;5.40;99.90
4215;DHT22;2121;48.062;7.850;2022-12-07T14:41:13;5.30;99.90
4215;DHT22;2121;48.062;7.850;2022-12-07T14:43:59;5.30;99.90
4215;DHT22;2121;48.062;7.850;2022-12-07T14:46:25;5.20;99.90
4215;DHT22;2121;48.062;7.850;2022-12-07T14:48:51;5.20;99.90
4215;DHT22;2121;48.062;7.850;2022-12-07T14:51:16;5.20;99.90
4215;DHT22;2121;48.062;7.850;2022-12-07T14:53:50;5.30;99.90
4215;DHT22;2121;48.062;7.850;2022-12-07T14:56:17;5.20;99.90
4215;DHT22;2121;48.062;7.850;2022-12-07T14:58:42;5.20;99.90
4215;DHT22;2121;48.062;7.850;2022-12-07T15:01:08;5.20;99.90
4215;DHT22;2121;48.062;7.850;2022-12-07T15:03:34;5.00;99.90
4215;DHT22;2121;48.062;7.850;2022-12-07T15:06:00;4.90;99.90
4215;DHT22;2121;48.062;7.850;2022-12-07T15:08:26;4.80;99.90
4215;DHT22;2121;48.062;7.850;2022-12-07T15:10:52;4.70;99.90
4215;DHT22;2121;48.062;7.850;2022-12-07T15:13:18;4.60;99.90
4215;DHT22;2121;48.062;7.850;2022-12-07T15:16:02;4.50;99.90
4215;DHT22;2121;48.062;7.850;2022-12-07T15:18:28;4.50;99.90
4215;DHT22;2121;48.062;7.850;2022-12-07T15:20:54;4.40;99.90
4215;DHT22;2121;48.062;7.850;2022-12-07T15:23:19;4.30;99.90
4215;DHT22;2121;48.062;7.850;2022-12-07T15:25:47;4.20;99.90
4215;DHT22;2121;48.062;7.850;2022-12-07T15:28:14;4.00;99.90
4215;DHT22;2121;48.062;7.850;2022-12-07T15:30:41;4.00;99.90
4215;DHT22;2121;48.062;7.850;2022-12-07T15:33:11;3.80;99.90
4215;DHT22;2121;48.062;7.850;2022-12-07T15:35:40;3.60;99.90
4215;DHT22;2121;48.062;7.850;2022-12-07T15:38:06;3.60;99.90
4215;DHT22;2121;48.062;7.850;2022-12-07T15:40:32;3.50;99.90
4215;DHT22;2121;48.062;7.850;2022-12-07T15:42:58;3.40;99.90
4215;DHT22;2121;48.062;7.850;2022-12-07T15:45:23;3.20;99.90
4215;DHT22;2121;48.062;7.850;2022-12-07T15:47:49;3.10;99.90
4215;DHT22;2121;48.062;7.850;2022-12-07T15:50:16;2.90;99.90
4215;DHT22;2121;48.062;7.850;2022-12-07T15:52:42;2.80;99.90
4215;DHT22;2121;48.062;7.850;2022-12-07T15:55:09;2.60;99.90
4215;DHT22;2121;48.062;7.850;2022-12-07T15:57:36;2.50;99.90
4215;DHT22;2121;48.062;7.850;2022-12-07T16:00:08;2.40;99.90
4215;DHT22;2121;48.062;7.850;2022-12-07T16:02:36;2.30;99.90
4215;DHT22;2121;48.062;7.850;2022-12-07T16:05:03;2.20;99.90
4215;DHT22;2121;48.062;7.850;2022-12-07T16:07:29;2.10;99.90
4215;DHT22;2121;48.062;7.850;2022-12-07T16:09:55;1.90;99.90
4215;DHT22;2121;48.062;7.850;2022-12-07T16:12:21;1.90;99.90
4215;DHT22;2121;48.062;7.850;2022-12-07T16:14:46;1.80;99.90
4215;DHT22;2121;48.062;7.850;2022-12-07T16:17:12;1.70;99.90
4215;DHT22;2121;48.062;7.850;2022-12-07T16:19:38;1.70;99.90
4215;DHT22;2121;48.062;7.850;2022-12-07T16:22:04;1.60;99.90
4215;DHT22;2121;48.062;7.850;2022-12-07T16:24:31;1.60;99.90
4215;DHT22;2121;48.062;7.850;2022-12-07T16:26:57;1.60;99.90
4215;DHT22;2121;48.062;7.850;2022-12-07T16:29:23;1.60;99.90
4215;DHT22;2121;48.062;7.850;2022-12-07T16:31:50;1.40;99.90
4215;DHT22;2121;48.062;7.850;2022-12-07T16:34:16;1.40;99.90
4215;DHT22;2121;48.062;7.850;2022-12-07T16:36:42;1.30;99.90
4215;DHT22;2121;48.062;7.850;2022-12-07T16:39:08;1.30;99.90
4215;DHT22;2121;48.062;7.850;2022-12-07T16:41:34;1.20;99.90
4215;DHT22;2121;48.062;7.850;2022-12-07T16:44:05;1.10;99.90
4215;DHT22;2121;48.062;7.850;2022-12-07T16:46:34;1.00;99.90
4215;DHT22;2121;48.062;7.850;2022-12-07T16:49:01;1.00;99.90
4215;DHT22;2121;48.062;7.850;2022-12-07T16:51:27;1.00;99.90
4215;DHT22;2121;48.062;7.850;2022-12-07T16:53:53;1.00;99.90
4215;DHT22;2121;48.062;7.850;2022-12-07T16:56:19;1.00;99.90
4215;DHT22;2121;48.062;7.850;2022-12-07T16:58:46;1.00;99.90
4215;DHT22;2121;48.062;7.850;2022-12-07T17:01:19;1.00;99.90
4215;DHT22;2121;48.062;7.850;2022-12-07T17:03:47;1.00;99.90
4215;DHT22;2121;48.062;7.850;2022-12-07T17:06:21;0.90;99.90
4215;DHT22;2121;48.062;7.850;2022-12-07T17:08:49;0.90;99.90
4215;DHT22;2121;48.062;7.850;2022-12-07T17:11:18;0.90;99.90
4215;DHT22;2121;48.062;7.850;2022-12-07T17:13:45;0.90;99.90
4215;DHT22;2121;48.062;7.850;2022-12-07T17:16:30;0.90;99.90
4215;DHT22;2121;48.062;7.850;2022-12-07T17:18:56;1.00;99.90
4215;DHT22;2121;48.062;7.850;2022-12-07T17:21:22;1.00;99.90
4215;DHT22;2121;48.062;7.850;2022-12-07T17:23:49;0.90;99.90
4215;DHT22;2121;48.062;7.850;2022-12-07T17:26:18;0.80;99.90
4215;DHT22;2121;48.062;7.850;2022-12-07T17:28:45;0.60;99.90
4215;DHT22;2121;48.062;7.850;2022-12-07T17:31:14;0.50;99.90
4215;DHT22;2121;48.062;7.850;2022-12-07T17:33:40;0.30;99.90
4215;DHT22;2121;48.062;7.850;2022-12-07T17:36:16;0.30;99.90
4215;DHT22;2121;48.062;7.850;2022-12-07T17:38:43;0.20;99.90
4215;DHT22;2121;48.062;7.850;2022-12-07T17:41:18;0.20;99.90
4215;DHT22;2121;48.062;7.850;2022-12-07T17:44:09;0.20;99.90
4215;DHT22;2121;48.062;7.850;2022-12-07T17:46:37;0.10;99.90
4215;DHT22;2121;48.062;7.850;2022-12-07T17:49:03;0.10;99.90
4215;DHT22;2121;48.062;7.850;2022-12-07T17:51:30;0.10;99.90
4215;DHT22;2121;48.062;7.850;2022-12-07T17:54:14;0.10;99.90
4215;DHT22;2121;48.062;7.850;2022-12-07T17:56:41;0.10;99.90
4215;DHT22;2121;48.062;7.850;2022-12-07T17:59:07;0.10;99.90
4215;DHT22;2121;48.062;7.850;2022-12-07T18:01:33;0.20;99.90
4215;DHT22;2121;48.062;7.850;2022-12-07T18:04:00;0.20;99.90
4215;DHT22;2121;48.062;7.850;2022-12-07T18:06:27;0.20;99.90
4215;DHT22;2121;48.062;7.850;2022-12-07T18:08:52;0.10;99.90
4215;DHT22;2121;48.062;7.850;2022-12-07T18:11:18;0.00;99.90
4215;DHT22;2121;48.062;7.850;2022-12-07T18:13:44;0.00;99.90
4215;DHT22;2121;48.062;7.850;2022-12-07T18:16:16;-0.10;99.90
4215;DHT22;2121;48.062;7.850;2022-12-07T18:18:44;0.00;99.90
4215;DHT22;2121;48.062;7.850;2022-12-07T18:21:16;0.10;99.90
4215;DHT22;2121;48.062;7.850;2022-12-07T18:23:44;0.40;99.90
4215;DHT22;2121;48.062;7.850;2022-12-07T18:26:12;0.50;99.90
4215;DHT22;2121;48.062;7.850;2022-12-07T18:28:39;0.50;99.90
4215;DHT22;2121;48.062;7.850;2022-12-07T18:31:05;0.40;99.90
4215;DHT22;2121;48.062;7.850;2022-12-07T18:33:31;0.30;99.90
4215;DHT22;2121;48.062;7.850;2022-12-07T18:35:59;0.30;99.90
4215;DHT22;2121;48.062;7.850;2022-12-07T18:38:26;0.40;99.90
4215;DHT22;2121;48.062;7.850;2022-12-07T18:40:52;0.40;99.90
4215;DHT22;2121;48.062;7.850;2022-12-07T18:43:18;0.30;99.90
4215;DHT22;2121;48.062;7.850;2022-12-07T18:45:44;0.30;99.90
4215;DHT22;2121;48.062;7.850;2022-12-07T18:48:15;0.40;99.90
4215;DHT22;2121;48.062;7.850;2022-12-07T18:50:42;0.50;99.90
4215;DHT22;2121;48.062;7.850;2022-12-07T18:53:09;0.70;99.90
4215;DHT22;2121;48.062;7.850;2022-12-07T18:55:36;0.80;99.90